sensor_id;sensor_type;location;lat;lon;timestamp;P1;durP1;ratioP1;P2;durP2;ratioP2
57217;SDS011;43078;52.972;6.482;2023-08-08T00:00:35;3.70;;;1.60;;
57217;SDS011;43078;52.972;6.482;2023-08-08T00:03:01;4.70;;;1.50;;
57217;SDS011;43078;52.972;6.482;2023-08-08T00:05:26;5.07;;;1.80;;
57217;SDS011;43078;52.972;6.482;2023-08-08T00:07:52;4.07;;;1.40;;
57217;SDS011;43078;52.972;6.482;2023-08-08T00:10:18;5.50;;;1.58;;
57217;SDS011;43078;52.972;6.482;2023-08-08T00:12:43;5.68;;;1.80;;
57217;SDS011;43078;52.972;6.482;2023-08-08T00:15:09;4.38;;;1.50;;
57217;SDS011;43078;52.972;6.482;2023-08-08T00:17:35;5.57;;;1.60;;
57217;SDS011;43078;52.972;6.482;2023-08-08T00:20:00;4.68;;;1.50;;
57217;SDS011;43078;52.972;6.482;2023-08-08T00:22:27;5.45;;;1.48;;
57217;SDS011;43078;52.972;6.482;2023-08-08T00:24:52;4.00;;;1.98;;
57217;SDS011;43078;52.972;6.482;2023-08-08T00:27:18;4.60;;;1.50;;
57217;SDS011;43078;52.972;6.482;2023-08-08T00:29:43;5.32;;;1.83;;
57217;SDS011;43078;52.972;6.482;2023-08-08T00:32:10;5.35;;;1.73;;
57217;SDS011;43078;52.972;6.482;2023-08-08T00:34:36;6.35;;;1.65;;
57217;SDS011;43078;52.972;6.482;2023-08-08T00:37:01;4.45;;;1.55;;
57217;SDS011;43078;52.972;6.482;2023-08-08T00:39:27;4.70;;;1.70;;
57217;SDS011;43078;52.972;6.482;2023-08-08T00:41:53;6.07;;;2.03;;
57217;SDS011;43078;52.972;6.482;2023-08-08T00:44:18;4.53;;;1.70;;
57217;SDS011;43078;52.972;6.482;2023-08-08T00:46:47;6.32;;;1.80;;
57217;SDS011;43078;52.972;6.482;2023-08-08T00:49:15;5.72;;;1.98;;
57217;SDS011;43078;52.972;6.482;2023-08-08T00:51:42;3.80;;;1.83;;
57217;SDS011;43078;52.972;6.482;2023-08-08T00:54:08;3.92;;;1.52;;
57217;SDS011;43078;52.972;6.482;2023-08-08T00:56:35;3.10;;;1.50;;
57217;SDS011;43078;52.972;6.482;2023-08-08T00:59:02;5.72;;;2.00;;
57217;SDS011;43078;52.972;6.482;2023-08-08T01:01:28;5.15;;;1.70;;
57217;SDS011;43078;52.972;6.482;2023-08-08T01:04:00;4.78;;;1.55;;
57217;SDS011;43078;52.972;6.482;2023-08-08T01:06:39;4.43;;;1.42;;
57217;SDS011;43078;52.972;6.482;2023-08-08T01:12:04;6.05;;;2.00;;
57217;SDS011;43078;52.972;6.482;2023-08-08T01:14:33;6.57;;;1.93;;
57217;SDS011;43078;52.972;6.482;2023-08-08T01:17:00;3.40;;;1.52;;
57217;SDS011;43078;52.972;6.482;2023-08-08T01:19:27;5.50;;;1.95;;
57217;SDS011;43078;52.972;6.482;2023-08-08T01:21:55;4.03;;;1.55;;
57217;SDS011;43078;52.972;6.482;2023-08-08T01:24:26;3.83;;;1.70;;
57217;SDS011;43078;52.972;6.482;2023-08-08T01:26:54;4.20;;;1.55;;
57217;SDS011;43078;52.972;6.482;2023-08-08T01:29:20;3.42;;;1.40;;
57217;SDS011;43078;52.972;6.482;2023-08-08T01:31:46;5.53;;;1.52;;
57217;SDS011;43078;52.972;6.482;2023-08-08T01:34:12;5.18;;;1.52;;
57217;SDS011;43078;52.972;6.482;2023-08-08T01:36:44;4.07;;;1.73;;
57217;SDS011;43078;52.972;6.482;2023-08-08T01:39:24;3.75;;;1.70;;
57217;SDS011;43078;52.972;6.482;2023-08-08T01:41:51;4.07;;;1.60;;
57217;SDS011;43078;52.972;6.482;2023-08-08T01:44:19;3.95;;;1.70;;
57217;SDS011;43078;52.972;6.482;2023-08-08T01:46:47;4.25;;;1.50;;
57217;SDS011;43078;52.972;6.482;2023-08-08T01:49:12;5.25;;;2.08;;
57217;SDS011;43078;52.972;6.482;2023-08-08T01:51:38;8.05;;;2.00;;
57217;SDS011;43078;52.972;6.482;2023-08-08T01:54:03;4.15;;;1.80;;
57217;SDS011;43078;52.972;6.482;2023-08-08T01:56:29;4.15;;;1.70;;
57217;SDS011;43078;52.972;6.482;2023-08-08T01:58:55;5.97;;;1.70;;
57217;SDS011;43078;52.972;6.482;2023-08-08T02:01:21;4.00;;;1.60;;
57217;SDS011;43078;52.972;6.482;2023-08-08T02:03:47;4.03;;;1.77;;
57217;SDS011;43078;52.972;6.482;2023-08-08T02:06:12;5.28;;;1.95;;
57217;SDS011;43078;52.972;6.482;2023-08-08T02:08:38;5.82;;;1.70;;
57217;SDS011;43078;52.972;6.482;2023-08-08T02:11:05;4.20;;;1.70;;
57217;SDS011;43078;52.972;6.482;2023-08-08T02:13:30;4.90;;;1.80;;
57217;SDS011;43078;52.972;6.482;2023-08-08T02:15:56;5.03;;;1.65;;
57217;SDS011;43078;52.972;6.482;2023-08-08T02:18:22;5.78;;;1.80;;
57217;SDS011;43078;52.972;6.482;2023-08-08T02:20:47;3.88;;;1.80;;
57217;SDS011;43078;52.972;6.482;2023-08-08T02:23:13;5.60;;;2.30;;
57217;SDS011;43078;52.972;6.482;2023-08-08T02:25:39;3.05;;;1.58;;
57217;SDS011;43078;52.972;6.482;2023-08-08T02:28:04;4.15;;;1.75;;
57217;SDS011;43078;52.972;6.482;2023-08-08T02:30:30;4.45;;;1.60;;
57217;SDS011;43078;52.972;6.482;2023-08-08T02:32:56;2.47;;;1.23;;
57217;SDS011;43078;52.972;6.482;2023-08-08T02:35:22;3.63;;;1.50;;
57217;SDS011;43078;52.972;6.482;2023-08-08T02:37:51;3.75;;;1.60;;
57217;SDS011;43078;52.972;6.482;2023-08-08T02:40:17;6.22;;;2.17;;
57217;SDS011;43078;52.972;6.482;2023-08-08T02:42:42;4.28;;;1.73;;
57217;SDS011;43078;52.972;6.482;2023-08-08T02:45:08;7.60;;;2.20;;
57217;SDS011;43078;52.972;6.482;2023-08-08T02:47:34;7.38;;;2.17;;
57217;SDS011;43078;52.972;6.482;2023-08-08T02:49:59;4.00;;;1.73;;
57217;SDS011;43078;52.972;6.482;2023-08-08T02:52:25;4.75;;;1.92;;
57217;SDS011;43078;52.972;6.482;2023-08-08T02:54:50;4.53;;;1.80;;
57217;SDS011;43078;52.972;6.482;2023-08-08T02:57:16;4.65;;;1.60;;
57217;SDS011;43078;52.972;6.482;2023-08-08T02:59:42;5.47;;;2.10;;
57217;SDS011;43078;52.972;6.482;2023-08-08T03:02:07;3.30;;;1.67;;
57217;SDS011;43078;52.972;6.482;2023-08-08T03:04:33;3.83;;;1.77;;
57217;SDS011;43078;52.972;6.482;2023-08-08T03:06:59;4.63;;;1.80;;
57217;SDS011;43078;52.972;6.482;2023-08-08T03:09:27;5.93;;;1.70;;
57217;SDS011;43078;52.972;6.482;2023-08-08T03:11:53;5.20;;;2.13;;
57217;SDS011;43078;52.972;6.482;2023-08-08T03:14:19;4.72;;;1.80;;
57217;SDS011;43078;52.972;6.482;2023-08-08T03:16:44;2.85;;;1.58;;
57217;SDS011;43078;52.972;6.482;2023-08-08T03:19:10;6.60;;;1.65;;
57217;SDS011;43078;52.972;6.482;2023-08-08T03:21:35;5.20;;;1.67;;
57217;SDS011;43078;52.972;6.482;2023-08-08T03:24:01;4.68;;;1.90;;
57217;SDS011;43078;52.972;6.482;2023-08-08T03:26:27;4.80;;;1.70;;
57217;SDS011;43078;52.972;6.482;2023-08-08T03:28:52;4.60;;;1.70;;
57217;SDS011;43078;52.972;6.482;2023-08-08T03:31:19;6.13;;;2.13;;
57217;SDS011;43078;52.972;6.482;2023-08-08T03:33:45;8.30;;;2.15;;
57217;SDS011;43078;52.972;6.482;2023-08-08T03:36:10;4.65;;;1.85;;
57217;SDS011;43078;52.972;6.482;2023-08-08T03:38:36;6.00;;;2.05;;
57217;SDS011;43078;52.972;6.482;2023-08-08T03:41:03;8.85;;;2.60;;
57217;SDS011;43078;52.972;6.482;2023-08-08T03:43:29;3.90;;;1.65;;
57217;SDS011;43078;52.972;6.482;2023-08-08T03:45:54;4.97;;;1.90;;
57217;SDS011;43078;52.972;6.482;2023-08-08T03:48:20;5.45;;;1.67;;
57217;SDS011;43078;52.972;6.482;2023-08-08T03:50:46;6.50;;;2.10;;
57217;SDS011;43078;52.972;6.482;2023-08-08T03:53:12;5.60;;;1.67;;
57217;SDS011;43078;52.972;6.482;2023-08-08T03:55:38;5.20;;;2.00;;
57217;SDS011;43078;52.972;6.482;2023-08-08T03:58:04;3.92;;;1.77;;
57217;SDS011;43078;52.972;6.482;2023-08-08T04:00:30;7.00;;;1.88;;
57217;SDS011;43078;52.972;6.482;2023-08-08T04:02:56;6.10;;;2.22;;
57217;SDS011;43078;52.972;6.482;2023-08-08T04:05:22;6.05;;;1.67;;
57217;SDS011;43078;52.972;6.482;2023-08-08T04:07:47;6.68;;;1.85;;
57217;SDS011;43078;52.972;6.482;2023-08-08T04:10:13;6.30;;;1.90;;
57217;SDS011;43078;52.972;6.482;2023-08-08T04:12:39;8.95;;;2.00;;
57217;SDS011;43078;52.972;6.482;2023-08-08T04:15:04;4.53;;;1.73;;
57217;SDS011;43078;52.972;6.482;2023-08-08T04:17:30;4.78;;;1.80;;
57217;SDS011;43078;52.972;6.482;2023-08-08T04:19:56;6.95;;;1.83;;
57217;SDS011;43078;52.972;6.482;2023-08-08T04:22:22;5.68;;;1.90;;
57217;SDS011;43078;52.972;6.482;2023-08-08T04:24:47;4.88;;;1.80;;
57217;SDS011;43078;52.972;6.482;2023-08-08T04:27:13;7.28;;;1.92;;
57217;SDS011;43078;52.972;6.482;2023-08-08T04:29:38;4.40;;;1.60;;
57217;SDS011;43078;52.972;6.482;2023-08-08T04:32:04;6.55;;;1.50;;
57217;SDS011;43078;52.972;6.482;2023-08-08T04:34:30;5.85;;;1.80;;
57217;SDS011;43078;52.972;6.482;2023-08-08T04:36:56;6.93;;;1.75;;
57217;SDS011;43078;52.972;6.482;2023-08-08T04:39:21;9.45;;;2.00;;
57217;SDS011;43078;52.972;6.482;2023-08-08T04:41:47;8.82;;;1.90;;
57217;SDS011;43078;52.972;6.482;2023-08-08T04:44:12;4.43;;;1.35;;
57217;SDS011;43078;52.972;6.482;2023-08-08T04:46:38;5.90;;;1.80;;
57217;SDS011;43078;52.972;6.482;2023-08-08T04:49:03;5.03;;;1.75;;
57217;SDS011;43078;52.972;6.482;2023-08-08T04:51:29;4.30;;;1.73;;
57217;SDS011;43078;52.972;6.482;2023-08-08T04:53:55;6.00;;;1.48;;
57217;SDS011;43078;52.972;6.482;2023-08-08T04:56:20;4.25;;;1.40;;
57217;SDS011;43078;52.972;6.482;2023-08-08T04:58:46;8.05;;;1.58;;
57217;SDS011;43078;52.972;6.482;2023-08-08T05:01:11;7.43;;;1.50;;
57217;SDS011;43078;52.972;6.482;2023-08-08T05:03:40;6.28;;;1.67;;
57217;SDS011;43078;52.972;6.482;2023-08-08T05:06:05;5.05;;;1.38;;
57217;SDS011;43078;52.972;6.482;2023-08-08T05:08:31;7.75;;;1.60;;
57217;SDS011;43078;52.972;6.482;2023-08-08T05:10:57;5.30;;;1.38;;
57217;SDS011;43078;52.972;6.482;2023-08-08T05:13:22;7.28;;;1.70;;
57217;SDS011;43078;52.972;6.482;2023-08-08T05:15:48;6.93;;;1.70;;
57217;SDS011;43078;52.972;6.482;2023-08-08T05:18:14;7.20;;;1.40;;
57217;SDS011;43078;52.972;6.482;2023-08-08T05:20:39;5.22;;;1.67;;
57217;SDS011;43078;52.972;6.482;2023-08-08T05:23:05;8.48;;;1.60;;
57217;SDS011;43078;52.972;6.482;2023-08-08T05:25:30;9.57;;;1.90;;
57217;SDS011;43078;52.972;6.482;2023-08-08T05:27:56;7.45;;;1.48;;
57217;SDS011;43078;52.972;6.482;2023-08-08T05:30:22;7.30;;;1.88;;
57217;SDS011;43078;52.972;6.482;2023-08-08T05:32:48;7.57;;;1.67;;
57217;SDS011;43078;52.972;6.482;2023-08-08T05:35:13;6.60;;;1.48;;
57217;SDS011;43078;52.972;6.482;2023-08-08T05:37:39;8.45;;;1.50;;
57217;SDS011;43078;52.972;6.482;2023-08-08T05:40:05;5.32;;;1.42;;
57217;SDS011;43078;52.972;6.482;2023-08-08T05:42:31;5.05;;;1.30;;
57217;SDS011;43078;52.972;6.482;2023-08-08T05:44:57;7.70;;;1.50;;
57217;SDS011;43078;52.972;6.482;2023-08-08T05:47:23;4.93;;;1.40;;
57217;SDS011;43078;52.972;6.482;2023-08-08T05:49:48;5.97;;;1.48;;
57217;SDS011;43078;52.972;6.482;2023-08-08T05:52:14;10.40;;;1.45;;
57217;SDS011;43078;52.972;6.482;2023-08-08T05:54:40;7.05;;;1.45;;
57217;SDS011;43078;52.972;6.482;2023-08-08T05:57:05;7.25;;;1.50;;
57217;SDS011;43078;52.972;6.482;2023-08-08T05:59:31;5.72;;;1.35;;
57217;SDS011;43078;52.972;6.482;2023-08-08T06:01:57;7.47;;;1.40;;
57217;SDS011;43078;52.972;6.482;2023-08-08T06:04:24;5.25;;;1.33;;
57217;SDS011;43078;52.972;6.482;2023-08-08T06:06:50;9.00;;;1.40;;
57217;SDS011;43078;52.972;6.482;2023-08-08T06:09:16;6.80;;;1.60;;
57217;SDS011;43078;52.972;6.482;2023-08-08T06:11:42;7.93;;;1.52;;
57217;SDS011;43078;52.972;6.482;2023-08-08T06:14:08;4.85;;;1.17;;
57217;SDS011;43078;52.972;6.482;2023-08-08T06:16:34;6.97;;;1.45;;
57217;SDS011;43078;52.972;6.482;2023-08-08T06:18:59;6.50;;;1.40;;
57217;SDS011;43078;52.972;6.482;2023-08-08T06:21:25;9.30;;;1.67;;
57217;SDS011;43078;52.972;6.482;2023-08-08T06:23:51;7.75;;;1.40;;
57217;SDS011;43078;52.972;6.482;2023-08-08T06:26:19;6.22;;;1.40;;
57217;SDS011;43078;52.972;6.482;2023-08-08T06:28:46;10.45;;;1.92;;
57217;SDS011;43078;52.972;6.482;2023-08-08T06:31:12;7.20;;;1.40;;
57217;SDS011;43078;52.972;6.482;2023-08-08T06:33:38;7.97;;;1.40;;
57217;SDS011;43078;52.972;6.482;2023-08-08T06:36:04;8.23;;;1.50;;
57217;SDS011;43078;52.972;6.482;2023-08-08T06:38:30;8.77;;;1.63;;
57217;SDS011;43078;52.972;6.482;2023-08-08T06:40:59;4.97;;;1.20;;
57217;SDS011;43078;52.972;6.482;2023-08-08T06:43:27;8.52;;;1.60;;
57217;SDS011;43078;52.972;6.482;2023-08-08T06:45:53;6.05;;;1.10;;
57217;SDS011;43078;52.972;6.482;2023-08-08T06:48:19;9.27;;;1.30;;
57217;SDS011;43078;52.972;6.482;2023-08-08T06:50:44;7.40;;;1.27;;
57217;SDS011;43078;52.972;6.482;2023-08-08T06:53:10;10.25;;;1.50;;
57217;SDS011;43078;52.972;6.482;2023-08-08T06:55:36;8.10;;;1.45;;
57217;SDS011;43078;52.972;6.482;2023-08-08T06:58:01;9.13;;;1.50;;
57217;SDS011;43078;52.972;6.482;2023-08-08T07:00:27;12.27;;;1.50;;
57217;SDS011;43078;52.972;6.482;2023-08-08T07:02:53;7.50;;;1.40;;
57217;SDS011;43078;52.972;6.482;2023-08-08T07:05:19;12.63;;;1.60;;
57217;SDS011;43078;52.972;6.482;2023-08-08T07:07:44;6.03;;;1.42;;
57217;SDS011;43078;52.972;6.482;2023-08-08T07:10:11;8.10;;;1.27;;
57217;SDS011;43078;52.972;6.482;2023-08-08T07:12:38;10.18;;;1.60;;
57217;SDS011;43078;52.972;6.482;2023-08-08T07:15:05;6.60;;;1.23;;
57217;SDS011;43078;52.972;6.482;2023-08-08T07:17:32;9.57;;;1.55;;
57217;SDS011;43078;52.972;6.482;2023-08-08T07:19:58;5.55;;;1.00;;
57217;SDS011;43078;52.972;6.482;2023-08-08T07:22:23;9.80;;;1.27;;
57217;SDS011;43078;52.972;6.482;2023-08-08T07:24:49;4.63;;;1.00;;
57217;SDS011;43078;52.972;6.482;2023-08-08T07:27:15;6.25;;;1.38;;
57217;SDS011;43078;52.972;6.482;2023-08-08T07:29:40;5.35;;;1.10;;
57217;SDS011;43078;52.972;6.482;2023-08-08T07:32:06;6.78;;;1.20;;
57217;SDS011;43078;52.972;6.482;2023-08-08T07:34:32;5.25;;;1.10;;
57217;SDS011;43078;52.972;6.482;2023-08-08T07:36:58;6.68;;;1.33;;
57217;SDS011;43078;52.972;6.482;2023-08-08T07:39:24;8.50;;;1.27;;
57217;SDS011;43078;52.972;6.482;2023-08-08T07:41:50;6.18;;;1.15;;
57217;SDS011;43078;52.972;6.482;2023-08-08T07:44:16;10.75;;;1.20;;
57217;SDS011;43078;52.972;6.482;2023-08-08T07:46:41;13.77;;;1.55;;
57217;SDS011;43078;52.972;6.482;2023-08-08T07:49:07;6.38;;;1.30;;
57217;SDS011;43078;52.972;6.482;2023-08-08T07:51:34;13.02;;;1.40;;
57217;SDS011;43078;52.972;6.482;2023-08-08T07:54:00;7.57;;;1.30;;
57217;SDS011;43078;52.972;6.482;2023-08-08T07:56:26;6.82;;;1.10;;
57217;SDS011;43078;52.972;6.482;2023-08-08T07:58:52;9.90;;;1.42;;
57217;SDS011;43078;52.972;6.482;2023-08-08T08:01:18;9.60;;;1.20;;
57217;SDS011;43078;52.972;6.482;2023-08-08T08:03:44;7.20;;;1.55;;
57217;SDS011;43078;52.972;6.482;2023-08-08T08:06:11;8.07;;;1.40;;
57217;SDS011;43078;52.972;6.482;2023-08-08T08:08:37;8.52;;;1.55;;
57217;SDS011;43078;52.972;6.482;2023-08-08T08:11:02;7.97;;;1.20;;
57217;SDS011;43078;52.972;6.482;2023-08-08T08:13:29;14.93;;;1.20;;
57217;SDS011;43078;52.972;6.482;2023-08-08T08:15:55;5.80;;;1.02;;
57217;SDS011;43078;52.972;6.482;2023-08-08T08:18:20;8.65;;;1.27;;
57217;SDS011;43078;52.972;6.482;2023-08-08T08:20:46;6.68;;;0.88;;
57217;SDS011;43078;52.972;6.482;2023-08-08T08:23:12;6.38;;;1.10;;
57217;SDS011;43078;52.972;6.482;2023-08-08T08:25:38;7.70;;;1.30;;
57217;SDS011;43078;52.972;6.482;2023-08-08T08:28:04;5.15;;;1.00;;
57217;SDS011;43078;52.972;6.482;2023-08-08T08:30:29;11.02;;;1.25;;
57217;SDS011;43078;52.972;6.482;2023-08-08T08:32:55;10.55;;;1.40;;
57217;SDS011;43078;52.972;6.482;2023-08-08T08:35:24;7.63;;;1.20;;
57217;SDS011;43078;52.972;6.482;2023-08-08T08:37:50;6.85;;;1.20;;
57217;SDS011;43078;52.972;6.482;2023-08-08T08:40:16;9.65;;;1.35;;
57217;SDS011;43078;52.972;6.482;2023-08-08T08:42:42;7.65;;;1.63;;
57217;SDS011;43078;52.972;6.482;2023-08-08T08:45:10;10.50;;;1.40;;
57217;SDS011;43078;52.972;6.482;2023-08-08T08:47:37;6.78;;;1.52;;
57217;SDS011;43078;52.972;6.482;2023-08-08T08:50:04;6.90;;;1.25;;
57217;SDS011;43078;52.972;6.482;2023-08-08T08:52:30;5.82;;;1.27;;
57217;SDS011;43078;52.972;6.482;2023-08-08T08:54:56;5.53;;;1.30;;
57217;SDS011;43078;52.972;6.482;2023-08-08T08:57:22;7.05;;;1.30;;
57217;SDS011;43078;52.972;6.482;2023-08-08T08:59:51;8.63;;;1.55;;
57217;SDS011;43078;52.972;6.482;2023-08-08T09:02:20;7.22;;;1.50;;
57217;SDS011;43078;52.972;6.482;2023-08-08T09:04:46;7.15;;;1.30;;
57217;SDS011;43078;52.972;6.482;2023-08-08T09:07:12;7.68;;;1.13;;
57217;SDS011;43078;52.972;6.482;2023-08-08T09:09:41;9.30;;;1.55;;
57217;SDS011;43078;52.972;6.482;2023-08-08T09:12:08;7.53;;;1.23;;
57217;SDS011;43078;52.972;6.482;2023-08-08T09:14:33;5.03;;;1.20;;
57217;SDS011;43078;52.972;6.482;2023-08-08T09:17:04;8.13;;;1.50;;
57217;SDS011;43078;52.972;6.482;2023-08-08T09:19:43;5.13;;;1.20;;
57217;SDS011;43078;52.972;6.482;2023-08-08T09:22:10;5.70;;;1.27;;
57217;SDS011;43078;52.972;6.482;2023-08-08T09:24:41;6.43;;;1.23;;
57217;SDS011;43078;52.972;6.482;2023-08-08T09:27:07;8.88;;;1.40;;
57217;SDS011;43078;52.972;6.482;2023-08-08T09:29:34;6.32;;;1.48;;
57217;SDS011;43078;52.972;6.482;2023-08-08T09:32:02;5.13;;;1.00;;
57217;SDS011;43078;52.972;6.482;2023-08-08T09:34:31;7.43;;;1.20;;
57217;SDS011;43078;52.972;6.482;2023-08-08T09:36:57;5.97;;;1.35;;
57217;SDS011;43078;52.972;6.482;2023-08-08T09:39:23;9.18;;;1.50;;
57217;SDS011;43078;52.972;6.482;2023-08-08T09:41:49;9.10;;;1.13;;
57217;SDS011;43078;52.972;6.482;2023-08-08T09:44:15;5.72;;;1.15;;
57217;SDS011;43078;52.972;6.482;2023-08-08T09:46:41;7.93;;;1.23;;
57217;SDS011;43078;52.972;6.482;2023-08-08T09:49:07;6.65;;;1.40;;
57217;SDS011;43078;52.972;6.482;2023-08-08T09:51:35;7.45;;;1.25;;
57217;SDS011;43078;52.972;6.482;2023-08-08T09:54:01;7.57;;;1.33;;
57217;SDS011;43078;52.972;6.482;2023-08-08T09:56:28;4.40;;;1.02;;
57217;SDS011;43078;52.972;6.482;2023-08-08T09:58:55;8.27;;;1.20;;
57217;SDS011;43078;52.972;6.482;2023-08-08T10:01:22;6.25;;;1.30;;
57217;SDS011;43078;52.972;6.482;2023-08-08T10:03:51;6.43;;;1.30;;
57217;SDS011;43078;52.972;6.482;2023-08-08T10:06:17;6.22;;;1.60;;
57217;SDS011;43078;52.972;6.482;2023-08-08T10:08:43;7.03;;;1.33;;
57217;SDS011;43078;52.972;6.482;2023-08-08T10:11:10;8.25;;;1.60;;
57217;SDS011;43078;52.972;6.482;2023-08-08T10:13:37;8.07;;;1.38;;
57217;SDS011;43078;52.972;6.482;2023-08-08T10:16:11;6.68;;;1.30;;
57217;SDS011;43078;52.972;6.482;2023-08-08T10:18:37;7.25;;;1.15;;
57217;SDS011;43078;52.972;6.482;2023-08-08T10:21:06;6.25;;;1.27;;
57217;SDS011;43078;52.972;6.482;2023-08-08T10:23:37;8.85;;;1.40;;
57217;SDS011;43078;52.972;6.482;2023-08-08T10:26:05;7.05;;;1.23;;
57217;SDS011;43078;52.972;6.482;2023-08-08T10:28:42;8.68;;;1.10;;
57217;SDS011;43078;52.972;6.482;2023-08-08T10:31:21;6.72;;;1.20;;
57217;SDS011;43078;52.972;6.482;2023-08-08T10:33:47;7.38;;;1.48;;
57217;SDS011;43078;52.972;6.482;2023-08-08T10:36:13;9.43;;;1.10;;
57217;SDS011;43078;52.972;6.482;2023-08-08T10:38:42;4.60;;;1.20;;
57217;SDS011;43078;52.972;6.482;2023-08-08T10:41:16;6.07;;;1.40;;
57217;SDS011;43078;52.972;6.482;2023-08-08T10:46:22;7.82;;;1.50;;
57217;SDS011;43078;52.972;6.482;2023-08-08T10:48:52;6.53;;;1.23;;
57217;SDS011;43078;52.972;6.482;2023-08-08T10:51:19;5.95;;;1.13;;
57217;SDS011;43078;52.972;6.482;2023-08-08T10:53:45;6.80;;;1.15;;
57217;SDS011;43078;52.972;6.482;2023-08-08T10:56:12;5.82;;;1.15;;
57217;SDS011;43078;52.972;6.482;2023-08-08T10:58:40;8.32;;;1.20;;
57217;SDS011;43078;52.972;6.482;2023-08-08T11:01:07;7.75;;;1.30;;
57217;SDS011;43078;52.972;6.482;2023-08-08T11:03:37;7.32;;;1.30;;
57217;SDS011;43078;52.972;6.482;2023-08-08T11:06:06;6.25;;;1.20;;
57217;SDS011;43078;52.972;6.482;2023-08-08T11:08:33;7.70;;;1.42;;
57217;SDS011;43078;52.972;6.482;2023-08-08T11:11:01;8.05;;;1.65;;
57217;SDS011;43078;52.972;6.482;2023-08-08T11:13:27;5.28;;;1.38;;
57217;SDS011;43078;52.972;6.482;2023-08-08T11:15:53;6.38;;;1.40;;
57217;SDS011;43078;52.972;6.482;2023-08-08T11:18:19;7.63;;;1.65;;
57217;SDS011;43078;52.972;6.482;2023-08-08T11:20:44;6.80;;;1.30;;
57217;SDS011;43078;52.972;6.482;2023-08-08T11:23:10;6.72;;;1.20;;
57217;SDS011;43078;52.972;6.482;2023-08-08T11:25:41;8.35;;;1.42;;
57217;SDS011;43078;52.972;6.482;2023-08-08T11:28:11;5.95;;;1.60;;
57217;SDS011;43078;52.972;6.482;2023-08-08T11:30:38;6.13;;;1.20;;
57217;SDS011;43078;52.972;6.482;2023-08-08T11:33:08;7.63;;;1.55;;
57217;SDS011;43078;52.972;6.482;2023-08-08T11:35:34;7.50;;;1.50;;
57217;SDS011;43078;52.972;6.482;2023-08-08T11:38:03;9.50;;;1.70;;
57217;SDS011;43078;52.972;6.482;2023-08-08T11:40:33;5.43;;;1.08;;
57217;SDS011;43078;52.972;6.482;2023-08-08T11:43:01;6.05;;;1.40;;
57217;SDS011;43078;52.972;6.482;2023-08-08T11:45:27;8.25;;;1.23;;
57217;SDS011;43078;52.972;6.482;2023-08-08T11:47:56;8.20;;;1.50;;
57217;SDS011;43078;52.972;6.482;2023-08-08T11:50:23;8.60;;;1.25;;
57217;SDS011;43078;52.972;6.482;2023-08-08T11:52:51;9.63;;;1.42;;
57217;SDS011;43078;52.972;6.482;2023-08-08T11:55:21;9.38;;;1.55;;
57217;SDS011;43078;52.972;6.482;2023-08-08T11:57:53;5.60;;;1.33;;
57217;SDS011;43078;52.972;6.482;2023-08-08T12:00:25;9.45;;;1.50;;
57217;SDS011;43078;52.972;6.482;2023-08-08T12:02:53;8.50;;;1.42;;
57217;SDS011;43078;52.972;6.482;2023-08-08T12:05:20;10.57;;;1.50;;
57217;SDS011;43078;52.972;6.482;2023-08-08T12:07:47;10.25;;;1.50;;
57217;SDS011;43078;52.972;6.482;2023-08-08T12:10:15;6.20;;;1.45;;
57217;SDS011;43078;52.972;6.482;2023-08-08T12:12:42;6.82;;;1.40;;
57217;SDS011;43078;52.972;6.482;2023-08-08T12:15:09;11.77;;;1.50;;
57217;SDS011;43078;52.972;6.482;2023-08-08T12:17:36;5.28;;;1.17;;
57217;SDS011;43078;52.972;6.482;2023-08-08T12:20:06;6.90;;;1.40;;
57217;SDS011;43078;52.972;6.482;2023-08-08T12:22:32;8.20;;;1.52;;
57217;SDS011;43078;52.972;6.482;2023-08-08T12:24:58;8.18;;;1.15;;
57217;SDS011;43078;52.972;6.482;2023-08-08T12:27:24;5.30;;;1.33;;
57217;SDS011;43078;52.972;6.482;2023-08-08T12:29:50;7.50;;;1.20;;
57217;SDS011;43078;52.972;6.482;2023-08-08T12:32:17;7.05;;;1.30;;
57217;SDS011;43078;52.972;6.482;2023-08-08T12:34:48;7.38;;;1.15;;
57217;SDS011;43078;52.972;6.482;2023-08-08T12:37:14;7.15;;;1.08;;
57217;SDS011;43078;52.972;6.482;2023-08-08T12:39:40;7.28;;;1.23;;
57217;SDS011;43078;52.972;6.482;2023-08-08T12:42:06;6.60;;;1.20;;
57217;SDS011;43078;52.972;6.482;2023-08-08T12:44:31;8.57;;;1.52;;
57217;SDS011;43078;52.972;6.482;2023-08-08T12:46:57;6.13;;;1.10;;
57217;SDS011;43078;52.972;6.482;2023-08-08T12:49:23;8.25;;;1.30;;
57217;SDS011;43078;52.972;6.482;2023-08-08T12:51:49;5.80;;;1.10;;
57217;SDS011;43078;52.972;6.482;2023-08-08T12:54:15;6.65;;;1.02;;
57217;SDS011;43078;52.972;6.482;2023-08-08T12:56:41;6.38;;;1.40;;
57217;SDS011;43078;52.972;6.482;2023-08-08T12:59:07;7.88;;;1.40;;
57217;SDS011;43078;52.972;6.482;2023-08-08T13:01:33;7.13;;;1.30;;
57217;SDS011;43078;52.972;6.482;2023-08-08T13:03:59;6.38;;;1.33;;
57217;SDS011;43078;52.972;6.482;2023-08-08T13:06:25;7.38;;;1.42;;
57217;SDS011;43078;52.972;6.482;2023-08-08T13:08:50;7.53;;;1.35;;
57217;SDS011;43078;52.972;6.482;2023-08-08T13:11:16;5.88;;;1.20;;
57217;SDS011;43078;52.972;6.482;2023-08-08T13:13:41;8.70;;;1.25;;
57217;SDS011;43078;52.972;6.482;2023-08-08T13:16:07;6.82;;;1.38;;
57217;SDS011;43078;52.972;6.482;2023-08-08T13:18:33;7.32;;;1.52;;
57217;SDS011;43078;52.972;6.482;2023-08-08T13:20:58;8.93;;;1.50;;
57217;SDS011;43078;52.972;6.482;2023-08-08T13:23:24;5.18;;;1.30;;
57217;SDS011;43078;52.972;6.482;2023-08-08T13:25:50;8.57;;;1.33;;
57217;SDS011;43078;52.972;6.482;2023-08-08T13:28:16;5.50;;;1.20;;
57217;SDS011;43078;52.972;6.482;2023-08-08T13:30:42;6.25;;;1.20;;
57217;SDS011;43078;52.972;6.482;2023-08-08T13:33:08;6.80;;;1.50;;
57217;SDS011;43078;52.972;6.482;2023-08-08T13:35:34;7.75;;;1.58;;
57217;SDS011;43078;52.972;6.482;2023-08-08T13:38:00;6.38;;;1.38;;
57217;SDS011;43078;52.972;6.482;2023-08-08T13:40:26;7.57;;;1.10;;
57217;SDS011;43078;52.972;6.482;2023-08-08T13:42:52;4.55;;;1.27;;
57217;SDS011;43078;52.972;6.482;2023-08-08T13:45:18;4.45;;;1.17;;
57217;SDS011;43078;52.972;6.482;2023-08-08T13:47:45;6.60;;;1.35;;
57217;SDS011;43078;52.972;6.482;2023-08-08T13:50:14;6.00;;;1.15;;
57217;SDS011;43078;52.972;6.482;2023-08-08T13:52:40;6.80;;;1.23;;
57217;SDS011;43078;52.972;6.482;2023-08-08T13:55:06;6.75;;;0.93;;
57217;SDS011;43078;52.972;6.482;2023-08-08T13:57:33;7.25;;;1.20;;
57217;SDS011;43078;52.972;6.482;2023-08-08T13:59:59;6.55;;;1.05;;
57217;SDS011;43078;52.972;6.482;2023-08-08T14:02:25;8.00;;;1.40;;
57217;SDS011;43078;52.972;6.482;2023-08-08T14:04:51;9.73;;;1.52;;
57217;SDS011;43078;52.972;6.482;2023-08-08T14:07:18;6.43;;;1.17;;
57217;SDS011;43078;52.972;6.482;2023-08-08T14:09:43;3.95;;;1.20;;
57217;SDS011;43078;52.972;6.482;2023-08-08T14:12:09;7.43;;;1.40;;
57217;SDS011;43078;52.972;6.482;2023-08-08T14:14:35;9.50;;;1.30;;
57217;SDS011;43078;52.972;6.482;2023-08-08T14:17:03;6.30;;;1.30;;
57217;SDS011;43078;52.972;6.482;2023-08-08T14:19:29;7.35;;;1.48;;
57217;SDS011;43078;52.972;6.482;2023-08-08T14:21:54;3.95;;;1.20;;
57217;SDS011;43078;52.972;6.482;2023-08-08T14:24:20;8.80;;;1.50;;
57217;SDS011;43078;52.972;6.482;2023-08-08T14:26:46;9.30;;;1.55;;
57217;SDS011;43078;52.972;6.482;2023-08-08T14:29:12;8.52;;;1.23;;
57217;SDS011;43078;52.972;6.482;2023-08-08T14:31:38;6.47;;;1.35;;
57217;SDS011;43078;52.972;6.482;2023-08-08T14:34:03;9.35;;;1.35;;
57217;SDS011;43078;52.972;6.482;2023-08-08T14:36:29;9.10;;;1.27;;
57217;SDS011;43078;52.972;6.482;2023-08-08T14:38:55;5.10;;;1.17;;
57217;SDS011;43078;52.972;6.482;2023-08-08T14:41:20;9.75;;;1.20;;
57217;SDS011;43078;52.972;6.482;2023-08-08T14:43:46;6.80;;;1.08;;
57217;SDS011;43078;52.972;6.482;2023-08-08T14:46:12;6.18;;;1.30;;
57217;SDS011;43078;52.972;6.482;2023-08-08T14:48:37;7.68;;;1.60;;